K51 EFRO-EFRO

Flight info

Callsign K51
Flight time 0h 12m
Altitude 1200
Route TC
Aircraft G115/L-SDGR/C

Departure

Time 2026-04-28 15:39
Airport Rovaniemi Airport (EFRO)

Arrival

Time 2026-04-28 15:51
Airport Rovaniemi Airport (EFRO)
Time Latitude Longitude Altitude Speed Heading
2026-04-28 15:03 66.56846 25.82910 655 ft 0 kts 307°
2026-04-28 15:12 66.56852 25.82888 654 ft 3 kts 304°
2026-04-28 15:13 66.56846 25.82838 656 ft 5 kts 217°
2026-04-28 15:13 66.56803 25.82758 657 ft 10 kts 218°
2026-04-28 15:13 66.56767 25.82689 656 ft 7 kts 217°
2026-04-28 15:13 66.56744 25.82646 656 ft 3 kts 211°
2026-04-28 15:14 66.56720 25.82689 654 ft 7 kts 124°
2026-04-28 15:14 66.56678 25.82702 650 ft 10 kts 218°
2026-04-28 15:14 66.56620 25.82595 647 ft 11 kts 215°
2026-04-28 15:14 66.56578 25.82516 645 ft 8 kts 218°
2026-04-28 15:15 66.56527 25.82416 644 ft 10 kts 217°
2026-04-28 15:15 66.56468 25.82298 641 ft 10 kts 216°
2026-04-28 15:15 66.56409 25.82248 638 ft 9 kts 173°
2026-04-28 15:15 66.56379 25.82278 637 ft 0 kts 145°
2026-04-28 15:16 66.56369 25.82299 638 ft 8 kts 135°
2026-04-28 15:16 66.56324 25.82459 636 ft 13 kts 125°
2026-04-28 15:17 66.56282 25.82618 633 ft 10 kts 106°
2026-04-28 15:17 66.56350 25.82800 634 ft 32 kts 36°
2026-04-28 15:17 66.56620 25.83317 677 ft 58 kts 26°
2026-04-28 15:17 66.56973 25.83956 815 ft 66 kts 26°
2026-04-28 15:18 66.57366 25.84710 995 ft 75 kts 30°
2026-04-28 15:18 66.57793 25.85539 1191 ft 79 kts 28°
2026-04-28 15:18 66.58280 25.85255 1239 ft 94 kts 319°
2026-04-28 15:18 66.58714 25.83813 1140 ft 109 kts 314°
2026-04-28 15:19 66.58913 25.82035 1220 ft 120 kts 258°
2026-04-28 15:19 66.58314 25.80425 1171 ft 133 kts 218°
2026-04-28 15:19 66.57517 25.79251 1233 ft 130 kts 212°
2026-04-28 15:19 66.56680 25.78217 1192 ft 136 kts 211°
2026-04-28 15:20 66.55848 25.77061 1105 ft 136 kts 217°
2026-04-28 15:20 66.55013 25.76098 1186 ft 130 kts 179°
2026-04-28 15:20 66.54239 25.77025 1051 ft 128 kts 140°
2026-04-28 15:20 66.53972 25.78547 1129 ft 86 kts 44°
2026-04-28 15:21 66.54490 25.79368 927 ft 89 kts 22°
2026-04-28 15:21 66.54972 25.80172 779 ft 75 kts 27°
2026-04-28 15:21 66.55328 25.80850 676 ft 55 kts 25°
2026-04-28 15:21 66.55597 25.81357 621 ft 42 kts 22°
2026-04-28 15:22 66.55827 25.81782 626 ft 47 kts 25°
2026-04-28 15:22 66.56121 25.82347 733 ft 61 kts 26°
2026-04-28 15:22 66.56518 25.83120 788 ft 85 kts 32°
2026-04-28 15:22 66.57030 25.84134 837 ft 101 kts 32°
2026-04-28 15:23 66.57606 25.85242 933 ft 106 kts 30°
2026-04-28 15:23 66.58234 25.86122 1089 ft 99 kts 353°
2026-04-28 15:23 66.58751 25.84748 959 ft 114 kts 314°
2026-04-28 15:23 66.59198 25.83193 946 ft 107 kts 310°
2026-04-28 15:24 66.58878 25.81437 1005 ft 130 kts 230°
2026-04-28 15:24 66.58121 25.80180 1029 ft 131 kts 214°
2026-04-28 15:24 66.57284 25.79204 977 ft 135 kts 212°
2026-04-28 15:24 66.56464 25.78256 1099 ft 126 kts 206°
2026-04-28 15:25 66.55636 25.77418 1039 ft 128 kts 214°
2026-04-28 15:25 66.54908 25.76111 1022 ft 128 kts 225°
2026-04-28 15:25 66.54124 25.75786 1171 ft 119 kts 141°
2026-04-28 15:25 66.53585 25.77374 1072 ft 120 kts 106°
2026-04-28 15:26 66.53936 25.78544 1073 ft 101 kts 20°
2026-04-28 15:26 66.54566 25.79445 909 ft 110 kts 32°
2026-04-28 15:26 66.55116 25.80476 724 ft 74 kts 28°
2026-04-28 15:26 66.55454 25.81087 639 ft 51 kts 24°
2026-04-28 15:27 66.55724 25.81589 621 ft 55 kts 36°
2026-04-28 15:27 66.56079 25.82283 660 ft 78 kts 29°
2026-04-28 15:27 66.56567 25.83219 694 ft 96 kts 31°
2026-04-28 15:27 66.57102 25.84253 841 ft 100 kts 29°
2026-04-28 15:28 66.57663 25.85349 931 ft 105 kts 27°
2026-04-28 15:28 66.58159 25.84645 1116 ft 108 kts 300°
2026-04-28 15:28 66.58484 25.82794 1090 ft 119 kts 301°
2026-04-28 15:28 66.58673 25.80797 1210 ft 127 kts 258°
2026-04-28 15:29 66.57974 25.79219 1200 ft 139 kts 224°
2026-04-28 15:29 66.57242 25.77701 1228 ft 136 kts 221°
2026-04-28 15:29 66.56474 25.76309 1170 ft 135 kts 220°
2026-04-28 15:29 66.55721 25.74956 1135 ft 133 kts 220°
2026-04-28 15:30 66.54897 25.74215 1195 ft 121 kts 154°
2026-04-28 15:30 66.54330 25.75656 1098 ft 119 kts 118°
2026-04-28 15:30 66.53968 25.77442 1080 ft 105 kts 82°
2026-04-28 15:30 66.54258 25.78879 996 ft 93 kts 31°
2026-04-28 15:31 66.54779 25.79834 835 ft 91 kts 28°
2026-04-28 15:31 66.55237 25.80694 709 ft 65 kts 27°
2026-04-28 15:31 66.55537 25.81252 624 ft 45 kts 25°
2026-04-28 15:31 66.55763 25.81668 613 ft 45 kts 37°
2026-04-28 15:32 66.56076 25.82267 675 ft 69 kts 30°
2026-04-28 15:32 66.56362 25.82819 689 ft 87 kts 31°
2026-04-28 15:32 66.57053 25.84170 812 ft 101 kts 31°
2026-04-28 15:32 66.57622 25.85257 872 ft 106 kts 28°
2026-04-28 15:33 66.58137 25.84420 938 ft 108 kts 311°
2026-04-28 15:33 66.58515 25.82814 965 ft 112 kts 310°
2026-04-28 15:33 66.58494 25.81057 1187 ft 127 kts 220°
2026-04-28 15:33 66.57774 25.79570 1167 ft 137 kts 226°
2026-04-28 15:34 66.57012 25.78075 1190 ft 138 kts 222°
2026-04-28 15:34 66.56285 25.76510 1230 ft 137 kts 231°
2026-04-28 15:34 66.55569 25.74942 1228 ft 136 kts 225°
2026-04-28 15:34 66.54747 25.73729 1199 ft 138 kts 182°
2026-04-28 15:35 66.54042 25.74873 1121 ft 118 kts 116°
2026-04-28 15:35 66.53835 25.78096 1087 ft 84 kts 30°
2026-04-28 15:35 66.54359 25.79012 936 ft 97 kts 32°
2026-04-28 15:36 66.54897 25.80050 801 ft 90 kts 27°
2026-04-28 15:36 66.55283 25.80774 686 ft 54 kts 26°
2026-04-28 15:36 66.55532 25.81236 623 ft 37 kts 25°
2026-04-28 15:36 66.55740 25.81623 665 ft 41 kts 22°
2026-04-28 15:37 66.56048 25.82214 715 ft 69 kts 32°
2026-04-28 15:37 66.56456 25.83048 822 ft 83 kts 30°
2026-04-28 15:37 66.56963 25.84001 894 ft 100 kts 32°
2026-04-28 15:37 66.57337 25.84746 953 ft 106 kts 32°
2026-04-28 15:38 66.58083 25.84750 1172 ft 105 kts 315°
2026-04-28 15:38 66.58536 25.83110 1118 ft 120 kts 309°
2026-04-28 15:38 66.58857 25.81204 1198 ft 129 kts 272°
2026-04-28 15:38 66.58246 25.79468 1235 ft 140 kts 219°
2026-04-28 15:39 66.57403 25.78193 1255 ft 144 kts 211°
2026-04-28 15:39 66.56506 25.76914 1087 ft 148 kts 214°
2026-04-28 15:39 66.55636 25.75635 1040 ft 145 kts 216°
2026-04-28 15:39 66.54766 25.74377 1015 ft 145 kts 201°
2026-04-28 15:40 66.54022 25.75322 1091 ft 131 kts 114°
2026-04-28 15:40 66.53732 25.77289 1219 ft 103 kts 52°
2026-04-28 15:40 66.54200 25.78748 1071 ft 112 kts 41°
2026-04-28 15:40 66.54834 25.79950 831 ft 115 kts 33°
2026-04-28 15:41 66.55412 25.81016 667 ft 98 kts 32°
2026-04-28 15:41 66.55918 25.81977 630 ft 85 kts 32°
2026-04-28 15:41 66.56356 25.82814 645 ft 74 kts 29°
2026-04-28 15:41 66.56745 25.83568 678 ft 68 kts 27°
2026-04-28 15:42 66.57142 25.84316 683 ft 73 kts 27°
2026-04-28 15:42 66.57561 25.85114 786 ft 73 kts 28°
2026-04-28 15:42 66.57969 25.84870 972 ft 84 kts 311°
2026-04-28 15:42 66.58374 25.83586 1024 ft 97 kts 316°
2026-04-28 15:43 66.58782 25.82111 1086 ft 108 kts 310°
2026-04-28 15:43 66.58518 25.80342 1160 ft 138 kts 216°
2026-04-28 15:43 66.57664 25.79133 1228 ft 142 kts 210°
2026-04-28 15:43 66.56821 25.77921 1291 ft 130 kts 229°
2026-04-28 15:44 66.56701 25.76157 1471 ft 101 kts 308°
2026-04-28 15:44 66.57221 25.75738 1758 ft 82 kts 30°
2026-04-28 15:44 66.57176 25.77225 1951 ft 117 kts 123°
2026-04-28 15:44 66.56351 25.77742 2073 ft 136 kts 193°
2026-04-28 15:45 66.55474 25.76552 1992 ft 147 kts 218°
2026-04-28 15:45 66.54614 25.75233 2114 ft 143 kts 194°
2026-04-28 15:45 66.53701 25.75978 2060 ft 142 kts 129°
2026-04-28 15:45 66.53432 25.77760 2202 ft 100 kts 49°
2026-04-28 15:46 66.54088 25.78740 1907 ft 115 kts 23°
2026-04-28 15:46 66.54777 25.79839 1622 ft 113 kts 31°
2026-04-28 15:46 66.55384 25.80979 681 ft 96 kts 29°
2026-04-28 15:46 66.55791 25.81757 626 ft 53 kts 28°
2026-04-28 15:47 66.56114 25.82348 671 ft 64 kts 30°
2026-04-28 15:47 66.56518 25.83125 772 ft 82 kts 30°
2026-04-28 15:47 66.57010 25.84074 865 ft 96 kts 32°
2026-04-28 15:47 66.57551 25.85112 986 ft 101 kts 30°
2026-04-28 15:48 66.58027 25.84424 974 ft 112 kts 304°
2026-04-28 15:48 66.58344 25.82559 991 ft 118 kts 301°
2026-04-28 15:48 66.58419 25.80664 1180 ft 134 kts 231°
2026-04-28 15:48 66.57533 25.79480 1085 ft 150 kts 216°
2026-04-28 15:49 66.56691 25.78023 1090 ft 144 kts 220°
2026-04-28 15:49 66.55847 25.76578 1073 ft 149 kts 219°
2026-04-28 15:49 66.54987 25.75082 1023 ft 149 kts 206°
2026-04-28 15:49 66.54203 25.76073 1061 ft 139 kts 117°
2026-04-28 15:50 66.54015 25.78143 1074 ft 116 kts 54°
2026-04-28 15:50 66.54556 25.79403 899 ft 106 kts 30°
2026-04-28 15:50 66.55110 25.80447 729 ft 84 kts 31°
2026-04-28 15:50 66.55478 25.81136 651 ft 54 kts 26°
2026-04-28 15:51 66.55758 25.81660 621 ft 46 kts 26°
2026-04-28 15:51 66.55986 25.82088 620 ft 34 kts 37°
2026-04-28 15:51 66.56180 25.82459 629 ft 33 kts 38°
2026-04-28 15:51 66.56313 25.82509 632 ft 20 kts 306°
2026-04-28 15:52 66.56369 25.82320 635 ft 19 kts 315°
2026-04-28 15:52 66.56493 25.82359 641 ft 14 kts 40°
2026-04-28 15:52 66.56578 25.82519 644 ft 20 kts 36°
2026-04-28 15:52 66.56676 25.82673 649 ft 12 kts 348°
2026-04-28 15:53 66.56729 25.82580 652 ft 9 kts 315°
2026-04-28 15:53 66.56719 25.82487 652 ft 6 kts 212°
2026-04-28 15:53 66.56714 25.82474 651 ft 0 kts 235°